Time;durP1;ratioP1;P1;durP2;ratioP2;P2;SDS_P1;SDS_P2;PMS_P1;PMS_P2;Temp;Humidity;BMP_temperature;BMP_pressure;BME280_temperature;BME280_humidity;BME280_pressure;Samples;Min_cycle;Max_cycle;Signal;HPM_P1;HPM_P2
2021/12/21 00:00:26;;;;;;;4.75;2.92;;;-1.30;99.90;;;;;;5066399;28;20177;-70
2021/12/21 00:02:54;;;;;;;2.83;2.42;;;-1.30;99.90;;;;;;5066481;28;20177;-67
2021/12/21 00:05:25;;;;;;;3.88;2.88;;;-1.40;99.90;;;;;;5066617;28;20163;-69
2021/12/21 00:07:52;;;;;;;3.28;2.95;;;-1.50;99.90;;;;;;5066499;28;20167;-67
2021/12/21 00:10:21;;;;;;;3.97;3.08;;;-1.50;99.90;;;;;;5066616;28;20230;-68
2021/12/21 00:25:55;;;;;;;1.63;1.38;;;-1.70;99.90;;;;;;5087185;28;20166;-69
2021/12/21 00:28:21;;;;;;;5.07;4.28;;;-1.60;99.90;;;;;;5086227;28;20361;-68
2021/12/21 00:30:47;;;;;;;5.60;3.50;;;-1.70;99.90;;;;;;5086795;28;20573;-67
2021/12/21 00:33:12;;;;;;;7.40;5.30;;;-1.70;99.90;;;;;;5086675;28;20201;-68
2021/12/21 00:35:41;;;;;;;3.87;3.20;;;-1.70;99.90;;;;;;5086622;28;20206;-69
2021/12/21 00:38:06;;;;;;;5.00;3.33;;;-1.70;99.90;;;;;;5086496;28;20222;-69
2021/12/21 00:40:32;;;;;;;2.90;2.70;;;-1.70;99.90;;;;;;5086622;28;20197;-71
2021/12/21 00:43:05;;;;;;;3.47;3.27;;;-1.70;99.90;;;;;;5089569;28;20188;-71
2021/12/21 00:45:34;;;;;;;3.50;2.55;;;-1.70;99.90;;;;;;5090851;28;20306;-69
2021/12/21 00:48:00;;;;;;;2.28;2.08;;;-1.90;99.90;;;;;;5090734;28;20172;-67
2021/12/21 00:50:25;;;;;;;2.77;2.57;;;-1.80;99.90;;;;;;5090516;28;20161;-67
2021/12/21 00:52:52;;;;;;;4.33;3.17;;;-1.80;99.90;;;;;;5090192;28;20187;-68
2021/12/21 00:55:20;;;;;;;3.58;3.30;;;-1.80;99.90;;;;;;5090138;28;20415;-69
2021/12/21 00:57:46;;;;;;;2.45;2.25;;;-1.80;99.90;;;;;;5089684;28;20193;-65
2021/12/21 01:00:16;;;;;;;4.88;3.60;;;-1.90;99.90;;;;;;5090100;28;20169;-69
2021/12/21 01:02:42;;;;;;;3.00;2.80;;;-1.90;99.90;;;;;;5072494;28;20180;-70
2021/12/21 01:05:18;;;;;;;4.80;2.95;;;-1.90;99.90;;;;;;5072296;28;20195;-69
2021/12/21 01:07:47;;;;;;;2.95;2.75;;;-1.90;99.90;;;;;;5090357;27;20172;-67
2021/12/21 01:17:58;;;;;;;1.88;1.70;;;-2.00;99.90;;;;;;5071903;28;20211;-69
2021/12/21 01:20:33;;;;;;;2.03;1.92;;;-2.00;99.90;;;;;;5054549;28;20189;-68
2021/12/21 01:30:40;;;;;;;5.57;3.25;;;-2.00;99.90;;;;;;5071321;28;20165;-68
2021/12/21 01:35:53;;;;;;;2.38;2.28;;;-2.10;99.90;;;;;;5069203;28;20204;-68
2021/12/21 01:38:48;;;;;;;2.45;2.35;;;-2.10;99.90;;;;;;5068825;28;20215;-70
2021/12/21 01:44:11;;;;;;;5.07;3.83;;;-2.00;99.90;;;;;;5069266;28;20438;-69
2021/12/21 01:52:02;;;;;;;2.55;2.45;;;-2.20;99.90;;;;;;5069114;28;20393;-69
2021/12/21 01:54:28;;;;;;;1.02;1.02;;;-2.20;99.90;;;;;;5067662;28;20301;-70
2021/12/21 01:56:54;;;;;;;2.70;2.50;;;-2.20;99.90;;;;;;5050787;28;20161;-68
2021/12/21 01:59:20;;;;;;;2.90;2.38;;;-2.10;99.90;;;;;;5051090;28;20202;-66
2021/12/21 02:01:46;;;;;;;4.37;4.00;;;-2.10;99.90;;;;;;5068698;28;20170;-69
2021/12/21 02:04:15;;;;;;;2.93;2.73;;;-2.10;99.90;;;;;;5068476;28;20454;-66
2021/12/21 02:06:41;;;;;;;11.10;3.05;;;-2.10;99.90;;;;;;5068129;28;20640;-69
2021/12/21 02:09:07;;;;;;;8.73;2.85;;;-2.10;99.90;;;;;;5068511;28;20182;-65
2021/12/21 02:11:33;;;;;;;3.47;2.50;;;-2.10;99.90;;;;;;5068467;28;20268;-68
2021/12/21 02:13:59;;;;;;;3.45;2.47;;;-2.20;99.90;;;;;;5068179;28;20416;-67
2021/12/21 02:17:13;;;;;;;4.70;3.72;;;-2.20;99.90;;;;;;5083278;28;20165;-69
2021/12/21 02:19:31;;;;;;;4.72;3.63;;;-2.20;99.90;;;;;;5085184;28;20264;-66
2021/12/21 02:22:07;;;;;;;1.02;0.93;;;-2.20;99.90;;;;;;5070881;28;20273;-71
2021/12/21 02:24:54;;;;;;;1.30;1.30;;;-2.30;99.90;;;;;;5088156;28;20219;-66
2021/12/21 02:27:41;;;;;;;2.85;2.75;;;-2.30;99.90;;;;;;5070341;28;20183;-69
2021/12/21 02:30:09;;;;;;;3.47;1.90;;;-2.30;99.90;;;;;;5088037;28;20153;-70
2021/12/21 02:32:35;;;;;;;2.72;2.53;;;-2.40;99.90;;;;;;5088024;28;20169;-66
2021/12/21 02:35:00;;;;;;;2.83;2.73;;;-2.40;99.90;;;;;;5087863;28;20419;-71
2021/12/21 02:37:26;;;;;;;3.20;2.87;;;-2.40;99.90;;;;;;5087583;28;20204;-66
2021/12/21 02:39:52;;;;;;;1.13;1.13;;;-2.40;99.90;;;;;;5087835;28;20385;-66
2021/12/21 02:42:17;;;;;;;2.03;1.93;;;-2.40;99.90;;;;;;5087867;28;20180;-67
2021/12/21 02:44:49;;;;;;;2.70;2.50;;;-2.40;99.90;;;;;;5087710;28;20208;-69
2021/12/21 02:47:15;;;;;;;3.00;2.75;;;-2.40;99.90;;;;;;5087502;28;20183;-69
2021/12/21 02:49:41;;;;;;;1.90;1.80;;;-2.40;99.90;;;;;;5070213;28;20164;-67
2021/12/21 02:52:07;;;;;;;4.87;3.50;;;-2.40;99.90;;;;;;5087725;28;20232;-69
2021/12/21 02:54:33;;;;;;;1.85;1.75;;;-2.40;99.90;;;;;;5087544;28;20435;-70
2021/12/21 02:56:58;;;;;;;3.00;2.77;;;-2.50;99.90;;;;;;5069722;28;20212;-68
2021/12/21 02:59:24;;;;;;;2.80;2.60;;;-2.50;99.90;;;;;;5087623;28;20165;-67
2021/12/21 03:01:50;;;;;;;1.53;1.43;;;-2.50;99.90;;;;;;5087477;28;20161;-67
2021/12/21 03:04:16;;;;;;;3.60;2.13;;;-2.40;99.90;;;;;;5087081;28;20309;-65
2021/12/21 03:11:57;;;;;;;1.58;1.48;;;-2.40;99.90;;;;;;5087475;28;20164;-66
2021/12/21 03:14:24;;;;;;;2.95;2.75;;;-2.50;99.90;;;;;;5087199;28;20205;-67
2021/12/21 03:16:50;;;;;;;3.10;2.90;;;-2.50;99.90;;;;;;5068126;28;20174;-69
2021/12/21 03:19:16;;;;;;;1.50;1.50;;;-2.50;99.90;;;;;;5067064;28;20428;-67
2021/12/21 03:21:42;;;;;;;1.47;1.37;;;-2.50;99.90;;;;;;5067170;28;20408;-69
2021/12/21 03:24:09;;;;;;;2.17;2.03;;;-2.50;99.90;;;;;;5066910;28;20424;-66
2021/12/21 03:26:35;;;;;;;1.80;1.70;;;-2.50;99.90;;;;;;5066576;28;20410;-69
2021/12/21 03:29:03;;;;;;;1.90;1.80;;;-2.50;99.90;;;;;;5066919;28;20177;-66
2021/12/21 03:31:28;;;;;;;1.80;1.70;;;-2.60;99.90;;;;;;5067011;28;20170;-69
2021/12/21 03:33:54;;;;;;;3.20;2.90;;;-2.60;99.90;;;;;;5066758;28;20219;-66
2021/12/21 03:36:20;;;;;;;2.03;1.90;;;-2.60;99.90;;;;;;5066691;28;20366;-69
2021/12/21 03:38:56;;;;;;;2.33;2.10;;;-2.60;99.90;;;;;;5066873;28;20202;-66
2021/12/21 03:41:24;;;;;;;3.15;1.90;;;-2.60;99.90;;;;;;5066871;28;20157;-69
2021/12/21 03:43:50;;;;;;;3.28;2.30;;;-2.70;99.90;;;;;;5066775;28;20244;-66
2021/12/21 03:46:16;;;;;;;1.83;1.83;;;-2.70;99.90;;;;;;5066687;28;20211;-69
2021/12/21 03:48:45;;;;;;;1.80;1.70;;;-2.80;99.90;;;;;;5049249;28;20666;-69
2021/12/21 03:51:12;;;;;;;2.88;2.67;;;-2.80;99.90;;;;;;5066790;28;20197;-68
2021/12/21 03:53:39;;;;;;;1.40;1.40;;;-2.80;99.90;;;;;;5066697;28;20188;-67
2021/12/21 03:56:51;;;;;;;1.80;1.70;;;-2.90;99.90;;;;;;5066677;28;20354;-66
2021/12/21 03:58:51;;;;;;;1.92;1.83;;;-2.90;99.90;;;;;;5059227;28;20225;-69
2021/12/21 04:01:17;;;;;;;3.90;3.28;;;-2.90;99.90;;;;;;5066645;28;20161;-68
2021/12/21 04:03:43;;;;;;;3.47;2.45;;;-2.80;99.90;;;;;;5066476;28;20220;-70
2021/12/21 04:06:09;;;;;;;6.30;2.90;;;-2.90;99.90;;;;;;5066607;28;20158;-71
2021/12/21 04:08:34;;;;;;;2.47;2.37;;;-2.90;99.90;;;;;;5066456;28;20508;-69
2021/12/21 04:11:01;;;;;;;2.27;2.03;;;-2.90;99.90;;;;;;5066698;28;20173;-68
2021/12/21 04:13:27;;;;;;;3.83;3.47;;;-2.90;99.90;;;;;;5066529;28;20193;-69
2021/12/21 04:15:54;;;;;;;1.60;1.50;;;-2.90;99.90;;;;;;5077511;28;20194;-64
2021/12/21 04:18:23;;;;;;;2.25;2.15;;;-2.90;99.90;;;;;;5089562;28;20439;-68
2021/12/21 04:20:49;;;;;;;1.17;1.17;;;-2.90;99.90;;;;;;5090535;28;20262;-66
2021/12/21 04:23:15;;;;;;;2.25;2.10;;;-2.90;99.90;;;;;;5090454;28;20250;-67
2021/12/21 04:25:41;;;;;;;1.53;1.53;;;-2.90;99.90;;;;;;5090484;28;20362;-66
2021/12/21 04:28:06;;;;;;;3.13;2.27;;;-2.90;99.90;;;;;;5090191;28;20403;-67
2021/12/21 04:30:32;;;;;;;1.97;1.70;;;-2.90;99.90;;;;;;5090440;28;20173;-66
2021/12/21 04:32:58;;;;;;;9.43;2.53;;;-2.90;99.90;;;;;;5090269;28;20165;-68
2021/12/21 04:35:23;;;;;;;2.23;2.13;;;-2.90;99.90;;;;;;5090323;28;20165;-66
2021/12/21 04:37:56;;;;;;;1.63;1.53;;;-2.90;99.90;;;;;;5089894;28;20339;-69
2021/12/21 04:40:26;;;;;;;2.67;2.47;;;-2.90;99.90;;;;;;5072624;28;20255;-65
2021/12/21 04:42:52;;;;;;;2.30;2.20;;;-2.90;99.90;;;;;;5090184;28;20444;-66
2021/12/21 04:45:18;;;;;;;4.10;3.80;;;-2.90;99.90;;;;;;5090146;28;20173;-66
2021/12/21 04:47:43;;;;;;;4.07;2.73;;;-2.90;99.90;;;;;;5089786;28;20196;-67
2021/12/21 04:50:10;;;;;;;4.80;3.93;;;-2.90;99.90;;;;;;5089921;28;20293;-68
2021/12/21 04:52:36;;;;;;;5.05;2.65;;;-2.90;99.90;;;;;;5089952;28;20243;-66
2021/12/21 04:55:02;;;;;;;3.40;2.00;;;-2.90;99.90;;;;;;5055785;28;20185;-67
2021/12/21 04:57:28;;;;;;;1.60;1.60;;;-2.90;99.90;;;;;;5089545;28;20200;-66
2021/12/21 04:59:54;;;;;;;6.80;4.97;;;-2.80;99.90;;;;;;5091747;28;20167;-69
2021/12/21 05:02:19;;;;;;;3.23;3.10;;;-2.80;99.90;;;;;;5094834;28;20177;-67
2021/12/21 05:04:45;;;;;;;3.33;2.70;;;-2.80;99.90;;;;;;5093192;28;20185;-68
2021/12/21 05:07:12;;;;;;;1.67;1.67;;;-2.90;99.90;;;;;;5089516;28;20176;-68
2021/12/21 05:09:43;;;;;;;2.00;1.90;;;-2.90;99.90;;;;;;5089668;28;20224;-70
2021/12/21 05:12:11;;;;;;;2.92;2.72;;;-3.00;99.90;;;;;;5089729;28;20161;-67
2021/12/21 05:14:37;;;;;;;4.82;3.85;;;-3.10;99.90;;;;;;5071898;28;20347;-68
2021/12/21 05:17:03;;;;;;;3.17;3.07;;;-3.10;99.90;;;;;;5069083;28;20201;-67
2021/12/21 05:19:29;;;;;;;6.90;2.50;;;-3.20;99.90;;;;;;5069405;28;20207;-67
2021/12/21 05:21:54;;;;;;;3.13;2.83;;;-3.20;99.90;;;;;;5069353;28;20169;-67
2021/12/21 05:24:20;;;;;;;3.42;2.05;;;-3.20;99.90;;;;;;5069268;28;20417;-68
2021/12/21 05:26:46;;;;;;;2.10;2.00;;;-3.30;99.90;;;;;;5069031;28;20181;-71
2021/12/21 05:29:12;;;;;;;3.97;3.13;;;-3.30;99.90;;;;;;5051628;28;20161;-67
2021/12/21 05:31:37;;;;;;;3.47;2.95;;;-3.30;99.90;;;;;;5069174;28;20172;-68
2021/12/21 05:34:03;;;;;;;1.70;1.63;;;-3.30;99.90;;;;;;5069068;28;20994;-67
2021/12/21 05:36:29;;;;;;;1.80;1.80;;;-3.30;99.90;;;;;;5051295;28;20257;-70
2021/12/21 05:39:00;;;;;;;7.55;2.70;;;-3.30;99.90;;;;;;5051488;28;20280;-67
2021/12/21 05:41:39;;;;;;;1.15;1.05;;;-3.30;99.90;;;;;;5051491;28;20165;-68
2021/12/21 05:44:05;;;;;;;3.95;2.95;;;-3.30;99.90;;;;;;5068910;28;20189;-65
2021/12/21 05:46:30;;;;;;;3.07;2.90;;;-3.40;99.90;;;;;;5068631;28;20275;-69
2021/12/21 05:48:56;;;;;;;4.27;3.90;;;-3.40;99.90;;;;;;5068820;28;20403;-65
2021/12/21 05:51:22;;;;;;;6.10;4.93;;;-3.40;99.90;;;;;;5068823;28;20177;-66
2021/12/21 05:53:49;;;;;;;2.63;2.53;;;-3.50;99.90;;;;;;5068747;28;20366;-68
2021/12/21 05:56:15;;;;;;;3.13;2.88;;;-3.50;99.90;;;;;;5068633;28;20172;-69
2021/12/21 05:58:41;;;;;;;1.20;1.20;;;-3.50;99.90;;;;;;5068482;28;20268;-69
2021/12/21 06:01:07;;;;;;;1.80;1.70;;;-3.50;99.90;;;;;;5068668;28;20166;-67
2021/12/21 06:03:33;;;;;;;11.00;2.60;;;-3.50;99.90;;;;;;5068435;28;20203;-68
2021/12/21 06:05:59;;;;;;;2.93;2.73;;;-3.40;99.90;;;;;;5068515;28;20488;-67
2021/12/21 06:08:25;;;;;;;6.50;3.77;;;-3.40;99.90;;;;;;5068040;28;20161;-67
2021/12/21 06:10:54;;;;;;;11.13;3.72;;;-3.40;99.90;;;;;;5069928;28;20173;-67
2021/12/21 06:13:42;;;;;;;1.95;1.85;;;-3.50;99.90;;;;;;5073437;28;20408;-69
2021/12/21 06:26:56;;;;;;;4.15;3.85;;;-3.50;99.90;;;;;;5067818;28;20153;-65
2021/12/21 06:29:22;;;;;;;3.03;2.07;;;-3.50;99.90;;;;;;5068053;28;20282;-66
2021/12/21 06:31:48;;;;;;;2.45;2.25;;;-3.50;99.90;;;;;;5071071;28;20667;-69
2021/12/21 06:34:14;;;;;;;1.90;1.80;;;-3.60;99.90;;;;;;5081898;28;20439;-66
2021/12/21 06:36:40;;;;;;;3.10;3.00;;;-3.60;99.90;;;;;;5087584;28;20196;-65
2021/12/21 06:39:06;;;;;;;2.00;1.90;;;-3.50;99.90;;;;;;5087348;28;20412;-64
2021/12/21 06:41:35;;;;;;;1.73;1.63;;;-3.50;99.90;;;;;;5087607;28;20620;-66
2021/12/21 06:44:03;;;;;;;2.03;1.30;;;-3.50;99.90;;;;;;5087776;28;20200;-65
2021/12/21 06:52:17;;;;;;;2.83;2.72;;;-3.50;99.90;;;;;;5026649;28;20230;-64
2021/12/21 06:54:43;;;;;;;5.63;3.10;;;-3.50;99.90;;;;;;5062672;28;20193;-69
2021/12/21 06:57:09;;;;;;;1.67;1.57;;;-3.50;99.90;;;;;;5087061;28;20694;-67
2021/12/21 06:59:35;;;;;;;1.90;1.80;;;-3.50;99.90;;;;;;5087347;28;20388;-66
2021/12/21 07:02:00;;;;;;;2.30;2.20;;;-3.50;99.90;;;;;;5087175;28;20172;-68
2021/12/21 07:04:26;;;;;;;2.37;2.17;;;-3.50;99.90;;;;;;5086287;28;20594;-69
2021/12/21 07:06:54;;;;;;;3.78;2.95;;;-3.50;99.90;;;;;;5086098;28;20180;-69
2021/12/21 07:09:40;;;;;;;1.92;1.83;;;-3.50;99.90;;;;;;5086475;28;20164;-68
2021/12/21 07:20:20;;;;;;;4.80;2.80;;;-3.50;99.90;;;;;;5073897;28;20286;-69
2021/12/21 07:22:45;;;;;;;4.43;4.03;;;-3.40;99.90;;;;;;5073894;28;20169;-67
2021/12/21 07:25:11;;;;;;;1.77;1.77;;;-3.40;99.90;;;;;;5065921;28;20462;-67
2021/12/21 07:27:37;;;;;;;3.53;3.40;;;-3.50;99.90;;;;;;5074146;28;20405;-67
2021/12/21 07:30:05;;;;;;;2.38;2.03;;;-3.50;99.90;;;;;;5085945;28;20419;-69
2021/12/21 07:32:31;;;;;;;1.95;1.80;;;-3.40;99.90;;;;;;5086004;28;20176;-69
2021/12/21 07:34:57;;;;;;;3.05;2.85;;;-3.30;99.90;;;;;;5085873;28;20223;-69
2021/12/21 07:37:25;;;;;;;2.40;2.27;;;-3.30;99.90;;;;;;5085706;28;20200;-68
2021/12/21 07:39:51;;;;;;;3.20;3.03;;;-3.20;99.90;;;;;;5085867;28;20410;-70
2021/12/21 07:42:20;;;;;;;6.72;2.78;;;-3.00;99.90;;;;;;5085915;28;20180;-71
2021/12/21 07:44:46;;;;;;;2.35;2.25;;;-2.90;99.90;;;;;;5085897;28;20176;-68
2021/12/21 07:47:12;;;;;;;6.35;3.67;;;-2.80;99.90;;;;;;5085438;28;20178;-69
2021/12/21 07:49:38;;;;;;;3.43;3.20;;;-2.70;99.90;;;;;;5085897;28;20196;-67
2021/12/21 07:52:07;;;;;;;3.40;2.50;;;-2.60;99.90;;;;;;5084521;28;20419;-69
2021/12/21 07:54:33;;;;;;;2.95;2.78;;;-2.60;99.90;;;;;;5085674;28;20720;-71
2021/12/21 07:56:59;;;;;;;5.28;4.40;;;-2.60;99.90;;;;;;5085206;28;20184;-70
2021/12/21 07:59:27;;;;;;;4.28;4.07;;;-2.50;99.90;;;;;;5085694;28;20169;-68
2021/12/21 08:01:53;;;;;;;3.95;3.70;;;-2.30;99.90;;;;;;5085512;28;20173;-70
2021/12/21 08:04:22;;;;;;;4.05;3.13;;;-2.10;99.90;;;;;;5034091;28;1491038;-68
2021/12/21 08:06:49;;;;;;;2.88;2.72;;;-2.00;99.90;;;;;;5086368;28;20214;-71
2021/12/21 08:09:15;;;;;;;6.80;4.72;;;-1.90;99.90;;;;;;5086544;28;20161;-69
2021/12/21 08:14:07;;;;;;;4.10;3.10;;;-1.60;99.90;;;;;;5086218;28;20196;-68
2021/12/21 08:16:33;;;;;;;4.83;4.13;;;-1.40;99.90;;;;;;5069582;28;20470;-69
2021/12/21 08:18:59;;;;;;;5.25;3.65;;;-1.10;99.90;;;;;;5066372;28;20201;-68
2021/12/21 08:21:25;;;;;;;4.00;3.67;;;-0.90;99.90;;;;;;5066466;28;20204;-72
2021/12/21 08:23:52;;;;;;;3.65;3.30;;;-0.70;99.90;;;;;;5066177;28;20426;-69
2021/12/21 08:26:18;;;;;;;9.18;5.70;;;-0.60;99.90;;;;;;5066062;28;20178;-71
2021/12/21 08:28:43;;;;;;;6.13;4.67;;;-0.40;99.90;;;;;;5066301;28;20187;-67
2021/12/21 08:31:12;;;;;;;5.63;5.13;;;0.00;99.90;;;;;;5066231;28;20408;-71
2021/12/21 08:33:39;;;;;;;8.43;6.93;;;0.70;99.90;;;;;;5066133;28;20189;-71
2021/12/21 08:36:06;;;;;;;5.65;5.05;;;1.50;99.90;;;;;;5066202;28;20172;-72
2021/12/21 08:38:32;;;;;;;8.85;5.88;;;2.30;99.90;;;;;;5065881;28;20212;-70
2021/12/21 08:41:00;;;;;;;5.32;4.85;;;2.90;99.90;;;;;;5066100;28;20279;-67
2021/12/21 08:43:31;;;;;;;8.32;7.43;;;3.50;99.90;;;;;;5066083;28;20192;-71
2021/12/21 08:45:57;;;;;;;9.88;5.38;;;4.00;99.90;;;;;;5066114;28;20312;-68
2021/12/21 08:48:24;;;;;;;6.47;5.93;;;4.70;99.90;;;;;;5065733;28;20165;-70
2021/12/21 08:50:54;;;;;;;11.13;5.53;;;5.20;99.90;;;;;;5066051;28;20408;-69
2021/12/21 08:53:21;;;;;;;7.07;5.30;;;5.60;99.90;;;;;;5065995;28;20204;-72
2021/12/21 08:55:46;;;;;;;4.32;3.95;;;5.90;99.90;;;;;;5065964;28;20162;-69
2021/12/21 08:58:13;;;;;;;4.23;3.90;;;6.10;99.90;;;;;;5065684;28;20211;-71
2021/12/21 09:00:40;;;;;;;5.47;4.83;;;6.30;99.90;;;;;;5066028;28;20186;-68
2021/12/21 09:03:06;;;;;;;13.30;4.50;;;6.70;99.90;;;;;;5066951;28;20418;-71
2021/12/21 09:05:32;;;;;;;6.40;5.13;;;6.90;99.90;;;;;;5069481;28;20419;-70
2021/12/21 09:08:00;;;;;;;14.40;4.00;;;7.00;99.90;;;;;;5069088;28;20566;-69
2021/12/21 09:10:28;;;;;;;6.60;4.40;;;7.20;99.90;;;;;;5069221;28;20414;-70
2021/12/21 09:12:53;;;;;;;8.37;4.60;;;7.20;99.90;;;;;;5069069;28;20638;-70
2021/12/21 09:15:21;;;;;;;6.37;4.87;;;7.40;99.90;;;;;;5069280;28;20409;-70
2021/12/21 09:17:47;;;;;;;4.73;4.23;;;7.60;99.90;;;;;;5068651;28;20264;-71
2021/12/21 09:20:15;;;;;;;5.50;5.00;;;7.60;99.90;;;;;;5069083;28;20490;-71
2021/12/21 09:22:42;;;;;;;5.60;4.67;;;7.50;99.90;;;;;;5069118;28;20493;-71
2021/12/21 09:25:10;;;;;;;7.90;6.83;;;7.80;99.90;;;;;;5068784;28;20420;-69
2021/12/21 09:27:36;;;;;;;8.43;5.67;;;8.10;99.90;;;;;;5068871;28;20458;-69
2021/12/21 09:30:04;;;;;;;6.30;4.77;;;8.40;99.90;;;;;;5069231;28;20415;-71
2021/12/21 09:32:30;;;;;;;6.40;4.87;;;8.80;99.90;;;;;;5069193;28;20498;-70
2021/12/21 09:34:55;;;;;;;6.43;4.10;;;9.10;98.20;;;;;;5069205;28;20504;-69
2021/12/21 09:37:21;;;;;;;4.83;3.77;;;9.10;98.00;;;;;;5051289;28;20310;-69
2021/12/21 09:39:52;;;;;;;6.00;5.40;;;9.30;96.80;;;;;;5051477;28;20223;-69
2021/12/21 09:42:22;;;;;;;5.30;4.90;;;9.50;95.20;;;;;;5069018;28;20384;-69
2021/12/21 09:44:48;;;;;;;3.73;3.30;;;9.60;93.80;;;;;;5068830;28;20467;-70
2021/12/21 09:47:14;;;;;;;9.30;5.00;;;9.60;94.70;;;;;;5068338;28;20370;-70
2021/12/21 09:49:41;;;;;;;5.70;5.00;;;9.80;95.40;;;;;;5068738;28;20533;-71
2021/12/21 09:52:11;;;;;;;6.30;5.53;;;9.90;93.00;;;;;;5068863;28;20400;-69
2021/12/21 09:54:37;;;;;;;5.63;5.00;;;9.80;93.10;;;;;;5068726;28;20499;-69
2021/12/21 09:57:04;;;;;;;6.77;4.73;;;9.80;94.50;;;;;;5068416;28;20491;-69
2021/12/21 09:59:30;;;;;;;8.70;5.87;;;9.80;92.90;;;;;;5068743;28;20413;-70
2021/12/21 10:01:57;;;;;;;5.20;4.43;;;9.80;93.60;;;;;;5068594;28;20412;-69
2021/12/21 10:04:27;;;;;;;8.97;5.43;;;9.80;94.00;;;;;;5068444;28;20226;-71
2021/12/21 10:06:55;;;;;;;5.70;4.40;;;9.70;92.60;;;;;;5050607;28;20637;-71
2021/12/21 10:09:32;;;;;;;5.80;5.00;;;9.50;93.20;;;;;;5068490;28;20380;-68
2021/12/21 10:11:58;;;;;;;5.40;4.83;;;9.50;92.90;;;;;;5073091;28;20418;-67
2021/12/21 10:14:25;;;;;;;7.47;5.20;;;9.20;92.50;;;;;;5069047;28;20445;-68
2021/12/21 10:17:08;;;;;;;6.67;4.90;;;9.00;93.50;;;;;;5087195;28;20489;-70
2021/12/21 10:19:36;;;;;;;6.00;5.40;;;9.10;93.70;;;;;;5088207;28;20386;-69
2021/12/21 10:22:09;;;;;;;5.20;4.30;;;9.10;92.90;;;;;;5088308;28;20395;-67
2021/12/21 10:24:45;;;;;;;5.97;4.90;;;9.10;93.30;;;;;;5088112;28;20415;-72
2021/12/21 10:27:10;;;;;;;9.20;5.63;;;9.30;92.80;;;;;;5087783;28;20620;-66
2021/12/21 10:30:12;;;;;;;7.23;4.33;;;9.20;92.70;;;;;;5088069;28;20392;-69
2021/12/21 10:32:47;;;;;;;6.00;4.77;;;9.10;92.10;;;;;;4987829;28;20195;-66
2021/12/21 10:35:13;;;;;;;5.23;4.00;;;8.90;92.90;;;;;;5074549;28;20389;-68
2021/12/21 10:37:41;;;;;;;5.13;4.53;;;8.90;93.10;;;;;;5087503;28;20455;-66
2021/12/21 10:40:06;;;;;;;4.67;4.27;;;8.90;92.30;;;;;;5087516;28;20157;-71
2021/12/21 10:42:47;;;;;;;8.53;4.57;;;9.00;93.00;;;;;;5087419;28;20586;-66
2021/12/21 10:45:12;;;;;;;6.33;5.10;;;8.90;92.60;;;;;;5070675;28;20425;-69
2021/12/21 10:47:38;;;;;;;5.77;4.00;;;8.80;92.40;;;;;;5087272;28;20500;-69
2021/12/21 10:50:05;;;;;;;5.33;4.57;;;8.60;93.50;;;;;;5087593;28;20186;-67
2021/12/21 10:52:31;;;;;;;4.00;3.60;;;8.60;92.90;;;;;;5087496;28;20275;-68
2021/12/21 10:54:57;;;;;;;7.47;4.33;;;8.60;93.20;;;;;;5087338;28;20643;-69
2021/12/21 10:57:31;;;;;;;3.90;3.13;;;8.30;93.10;;;;;;5069346;28;20537;-65
2021/12/21 11:00:04;;;;;;;4.17;3.67;;;8.10;93.20;;;;;;5087534;28;20412;-70
2021/12/21 11:02:33;;;;;;;4.53;3.53;;;8.00;93.30;;;;;;5087161;28;20438;-66
2021/12/21 11:05:14;;;;;;;3.33;2.90;;;8.00;93.60;;;;;;5087068;28;20487;-71
2021/12/21 11:10:25;;;;;;;3.88;3.35;;;7.90;93.60;;;;;;5087344;28;20243;-71
2021/12/21 11:12:56;;;;;;;9.98;3.50;;;7.20;93.40;;;;;;5087147;28;20172;-74
2021/12/21 11:15:29;;;;;;;7.15;3.72;;;6.50;94.40;;;;;;5080389;28;20390;-69
2021/12/21 11:18:19;;;;;;;3.03;2.65;;;5.90;95.00;;;;;;5066737;28;20404;-72
2021/12/21 11:20:50;;;;;;;3.17;2.88;;;5.30;96.40;;;;;;5067048;28;20406;-70
2021/12/21 11:23:19;;;;;;;4.47;4.07;;;4.90;97.00;;;;;;5067012;28;20281;-68
2021/12/21 11:25:48;;;;;;;5.63;3.28;;;4.50;98.00;;;;;;5066761;28;20240;-67
2021/12/21 11:28:21;;;;;;;6.22;3.35;;;4.30;98.80;;;;;;5066634;28;20158;-71
2021/12/21 11:30:47;;;;;;;6.88;3.60;;;4.10;99.30;;;;;;5066826;28;20158;-68
2021/12/21 11:33:17;;;;;;;3.63;2.73;;;3.90;99.90;;;;;;5066850;28;20247;-72
2021/12/21 11:38:12;;;;;;;3.85;2.65;;;3.50;99.90;;;;;;5066695;28;20258;-73
2021/12/21 11:40:47;;;;;;;4.18;3.80;;;3.50;99.90;;;;;;5066832;28;20162;-68
2021/12/21 11:43:22;;;;;;;2.97;2.58;;;3.40;99.90;;;;;;5066582;28;20185;-72
2021/12/21 11:46:06;;;;;;;3.08;2.15;;;3.40;99.90;;;;;;5066640;28;20189;-72
2021/12/21 11:48:38;;;;;;;2.30;2.20;;;3.40;99.90;;;;;;5066349;28;20169;-67
2021/12/21 11:51:07;;;;;;;2.88;2.38;;;3.40;99.90;;;;;;5066450;28;20179;-70
2021/12/21 11:53:33;;;;;;;2.00;1.90;;;3.30;99.90;;;;;;5066484;28;20185;-68
2021/12/21 11:55:59;;;;;;;1.50;1.50;;;3.30;99.90;;;;;;5066184;28;20171;-70
2021/12/21 11:58:29;;;;;;;7.30;2.53;;;3.20;99.90;;;;;;5066143;28;20679;-69
2021/12/21 12:01:02;;;;;;;1.45;1.35;;;3.30;99.90;;;;;;5066650;28;20221;-72
2021/12/21 12:03:31;;;;;;;1.60;1.35;;;3.30;99.90;;;;;;5066247;28;20205;-68
2021/12/21 12:05:58;;;;;;;3.70;2.10;;;3.20;99.90;;;;;;5066563;28;20161;-68
2021/12/21 12:08:27;;;;;;;0.90;0.90;;;3.20;99.90;;;;;;5066232;28;20169;-67
2021/12/21 12:10:58;;;;;;;1.40;1.40;;;3.20;99.90;;;;;;5066497;28;20177;-68
2021/12/21 12:13:29;;;;;;;2.25;2.15;;;3.20;99.90;;;;;;5066482;28;20177;-69
2021/12/21 12:16:05;;;;;;;1.77;1.42;;;3.20;99.90;;;;;;5077514;28;20261;-69
2021/12/21 12:18:36;;;;;;;3.67;2.30;;;3.20;99.90;;;;;;5086122;28;20199;-67
2021/12/21 12:21:21;;;;;;;4.45;1.98;;;3.30;99.90;;;;;;5074235;28;20326;-70
2021/12/21 12:24:04;;;;;;;2.30;2.10;;;3.30;99.90;;;;;;5065892;28;20307;-71
2021/12/21 12:26:34;;;;;;;2.20;2.10;;;3.40;99.90;;;;;;5049042;28;20209;-71
2021/12/21 12:29:18;;;;;;;3.95;1.98;;;3.40;99.90;;;;;;5066354;28;20154;-69
2021/12/21 12:32:01;;;;;;;2.53;1.25;;;3.40;99.90;;;;;;5066122;28;20377;-72
2021/12/21 12:34:32;;;;;;;1.45;1.35;;;3.40;99.90;;;;;;5066008;28;20267;-71
2021/12/21 12:36:59;;;;;;;23.70;1.85;;;3.40;99.90;;;;;;5065768;28;20165;-69
2021/12/21 12:39:34;;;;;;;1.35;1.35;;;3.50;99.90;;;;;;5069188;28;20169;-70
2021/12/21 12:42:16;;;;;;;1.65;1.55;;;3.50;99.90;;;;;;5069597;28;20166;-70
2021/12/21 12:44:45;;;;;;;2.08;1.65;;;3.50;99.90;;;;;;5052489;28;20267;-72
2021/12/21 12:47:13;;;;;;;2.55;2.05;;;3.50;99.90;;;;;;5069373;28;20153;-70
2021/12/21 12:49:51;;;;;;;1.15;1.15;;;3.50;99.90;;;;;;5069817;28;20170;-72
2021/12/21 12:52:20;;;;;;;10.23;2.58;;;3.60;99.90;;;;;;5069877;28;20157;-66
2021/12/21 12:54:53;;;;;;;1.17;1.17;;;3.50;99.90;;;;;;5069586;28;20177;-67
2021/12/21 12:57:29;;;;;;;1.90;1.80;;;3.60;99.90;;;;;;5069069;28;20305;-67
2021/12/21 13:00:05;;;;;;;2.28;1.67;;;3.60;99.90;;;;;;5069496;28;20373;-68
2021/12/21 13:02:31;;;;;;;1.80;1.52;;;3.50;99.90;;;;;;5069563;28;20172;-68
2021/12/21 13:04:57;;;;;;;3.40;1.67;;;3.60;99.90;;;;;;5069407;28;20398;-67
2021/12/21 13:07:27;;;;;;;4.25;2.00;;;3.60;99.90;;;;;;5069305;28;20274;-66
2021/12/21 13:10:08;;;;;;;1.83;1.70;;;3.60;99.90;;;;;;5069612;28;20181;-67
2021/12/21 13:12:35;;;;;;;3.05;2.45;;;3.60;99.90;;;;;;5069468;28;20269;-67
2021/12/21 13:15:01;;;;;;;2.22;1.92;;;3.60;99.90;;;;;;5073097;28;20298;-67
2021/12/21 13:17:28;;;;;;;3.80;2.00;;;3.70;99.90;;;;;;5089209;28;20271;-64
2021/12/21 13:19:54;;;;;;;3.30;3.00;;;3.70;99.90;;;;;;5089392;28;20562;-68
2021/12/21 13:22:25;;;;;;;2.38;2.20;;;3.60;99.90;;;;;;5089377;28;20239;-65
2021/12/21 13:24:52;;;;;;;5.65;1.80;;;3.60;99.90;;;;;;5089337;28;20191;-68
2021/12/21 13:27:24;;;;;;;2.28;2.10;;;3.60;99.90;;;;;;5088024;28;20161;-64
2021/12/21 13:29:50;;;;;;;2.45;2.25;;;3.60;99.90;;;;;;5087766;28;20401;-68
2021/12/21 13:32:19;;;;;;;3.10;2.70;;;3.60;99.90;;;;;;5089004;28;20176;-65
2021/12/21 13:34:52;;;;;;;2.00;1.90;;;3.70;99.90;;;;;;5088134;28;20188;-69
2021/12/21 13:37:19;;;;;;;1.13;1.13;;;3.70;99.90;;;;;;5088015;28;20236;-66
2021/12/21 13:39:52;;;;;;;2.38;1.88;;;3.70;99.90;;;;;;5071118;28;20180;-67
2021/12/21 13:42:21;;;;;;;2.35;2.05;;;3.70;99.90;;;;;;5088837;28;20164;-67
2021/12/21 13:44:53;;;;;;;2.70;1.95;;;3.70;99.90;;;;;;5088732;28;20204;-67
2021/12/21 13:47:30;;;;;;;2.33;2.15;;;3.70;99.90;;;;;;5088634;28;20231;-66
2021/12/21 13:50:05;;;;;;;5.00;2.97;;;3.70;99.90;;;;;;5088960;28;20232;-71
2021/12/21 13:52:41;;;;;;;3.45;2.65;;;3.70;99.90;;;;;;5074603;28;20161;-68
2021/12/21 13:55:20;;;;;;;3.45;2.85;;;3.70;99.90;;;;;;5094816;28;20241;-68
2021/12/21 13:57:50;;;;;;;2.78;1.95;;;3.60;99.90;;;;;;5077289;28;20207;-68
2021/12/21 14:00:16;;;;;;;3.45;2.22;;;3.60;99.90;;;;;;5093834;28;20395;-66
2021/12/21 14:03:14;;;;;;;2.10;2.00;;;3.60;99.90;;;;;;5095553;28;20189;-69
2021/12/21 14:05:43;;;;;;;1.80;1.67;;;3.60;99.90;;;;;;5094561;28;20396;-65
2021/12/21 14:08:10;;;;;;;3.15;2.08;;;3.60;99.90;;;;;;5089621;28;20241;-66
2021/12/21 14:10:50;;;;;;;2.63;2.45;;;3.60;99.90;;;;;;5088655;28;20169;-68
2021/12/21 14:13:25;;;;;;;3.00;2.00;;;3.50;99.90;;;;;;5088594;28;20192;-67
2021/12/21 14:15:51;;;;;;;3.03;2.30;;;3.50;99.90;;;;;;5060352;28;20384;-65